Latest Weather Observations for Brisbane Airport

IDQ60801

Issued at 10:42 pm EST Sunday 21 July 2019 (issued every 10 minutes, with the page automatically refreshed every 10 minutes)

About weather observations | Map of weather stations | Latest weather observations for QLD | Other Formats
Station Details ID: 040842 Name: BRISBANE AERO Lat: -27.39 Lon: 153.13 Height: 4.51 m
Data from the previous 72 hours. | See also: Recent months at Brisbane Airport
Date/Time
EST
Temp
°C
App
Temp
°C
Dew
Point
°C
Rel
Hum
%
Delta-T
°C
Wind Press
QNH
hPa
Press
MSL
hPa
Rain since
9am
mm
Dir  Spd
km/h
Gust
km/h
Spd
kts
Gust
kts
21/10:30pm 12.8 12.3 10.7 87 1.1 WNW 4 9 2 5 1020.2 1020.1 0.0
21/10:00pm 12.7 11.4 11.2 91 0.8 WNW 9 13 5 7 1020.3 1020.2 0.0
21/09:30pm 12.7 11.9 11.0 89 0.9 NNW 6 7 3 4 1020.4 1020.3 0.0
21/09:00pm 13.1 13.4 12.2 94 0.5 NW 2 9 1 5 1020.3 1020.2 0.0
21/08:30pm 13.7 13.2 12.2 91 0.8 NNW 6 7 3 4 1020.3 1020.2 0.0
21/08:00pm 13.9 13.0 11.5 85 1.3 NNW 7 11 4 6 1020.1 1020.0 0.0
21/07:30pm 14.5 14.1 12.3 87 1.2 N 6 9 3 5 1019.9 1019.8 0.0
21/07:00pm 14.2 14.4 12.0 87 1.2 NE 2 7 1 4 1019.6 1019.5 0.0
21/06:30pm 14.3 13.6 11.5 83 1.5 ENE 6 7 3 4 1019.3 1019.2 0.0
21/06:00pm 14.6 13.3 11.2 80 1.8 ENE 9 11 5 6 1019.0 1018.9 0.0
21/05:30pm 16.3 15.1 11.7 74 2.5 NE 9 11 5 6 1018.8 1018.7 0.0
21/05:00pm 17.0 15.5 11.9 72 2.8 NNE 11 13 6 7 1018.6 1018.5 0.0
21/04:30pm 18.5 16.1 11.3 63 3.9 NNE 15 19 8 10 1018.3 1018.2 0.0
21/04:00pm 19.4 16.1 9.6 53 5.2 NE 17 20 9 11 1018.2 1018.1 0.0
21/03:30pm 19.7 16.6 10.4 55 5.0 ENE 17 22 9 12 1018.2 1018.1 0.0
21/03:00pm 20.2 17.3 9.7 51 5.6 ENE 15 19 8 10 1018.6 1018.5 0.0
21/02:30pm 19.9 16.4 8.8 48 5.8 ENE 17 20 9 11 1018.8 1018.7 0.0
21/02:00pm 20.4 17.1 9.5 49 5.8 ENE 17 22 9 12 1019.0 1018.9 0.0
21/01:30pm 20.6 17.1 8.8 46 6.2 NE 17 19 9 10 1019.3 1019.2 0.0
21/01:00pm 20.7 17.6 8.9 46 6.2 NE 15 20 8 11 1019.7 1019.6 0.0
21/12:30pm 20.4 17.7 9.0 48 6.0 NE 13 17 7 9 1020.3 1020.2 0.0
21/12:00pm 20.8 18.5 9.1 47 6.2 ENE 11 15 6 8 1020.8 1020.7 0.0
21/11:30am 20.1 18.1 8.8 48 5.9 NE 9 15 5 8 1021.5 1021.4 0.0
21/11:00am 19.5 17.7 8.0 47 5.9 NE 7 11 4 6 1021.9 1021.8 0.0
21/10:30am 19.1 17.7 9.6 54 5.0 SSE 7 11 4 6 1022.1 1022.0 0.0
21/10:00am 17.4 15.3 9.8 61 4.0 SW 11 17 6 9 1022.8 1022.7 0.0
21/09:30am 16.3 13.4 9.8 65 3.4 SW 15 20 8 11 1023.1 1023.0 0.0
21/09:00am 15.2 12.7 9.8 70 2.8 SSW 13 19 7 10 1023.2 1023.1 0.0
21/08:30am 13.6 10.9 10.3 80 1.7 SSW 15 19 8 10 1023.1 1023.0 0.0
21/08:00am 11.8 9.3 9.8 87 1.0 SW 13 17 7 9 1023.0 1022.9 0.0
21/07:30am 10.2 7.2 9.4 95 0.4 SW 15 17 8 9 1022.8 1022.7 0.0
21/07:00am 9.0 5.7 8.2 95 0.4 SSW 15 19 8 10 1022.6 1022.5 0.0
21/06:30am 8.3 5.0 7.9 97 0.2 SW 15 19 8 10 1022.3 1022.2 0.0
21/06:00am 7.9 4.9 7.7 99 0.1 SW 13 15 7 8 1022.3 1022.2 0.0
21/05:30am 8.6 5.7 8.2 97 0.2 SSW 13 15 7 8 1022.1 1022.0 0.0
21/05:00am 8.9 6.9 8.7 99 0.1 SSW 9 11 5 6 1022.1 1022.0 0.0
21/04:30am 9.0 7.3 8.2 95 0.4 SSW 7 9 4 5 1022.0 1021.9 0.0
21/04:00am 11.1 9.2 9.1 87 1.0 SSW 9 11 5 6 1022.1 1022.0 0.0
21/03:30am 10.8 8.5 9.0 89 0.9 SSW 11 15 6 8 1022.2 1022.1 0.0
21/03:00am 11.4 8.8 9.2 86 1.1 SSW 13 15 7 8 1022.3 1022.2 0.0
21/02:30am 10.6 7.9 9.0 90 0.8 SSW 13 17 7 9 1022.3 1022.2 0.0
21/02:00am 11.4 10.0 9.4 87 1.0 SSW 7 9 4 5 1022.6 1022.5 0.0
21/01:30am 11.4 10.0 9.4 87 1.0 WSW 7 7 4 4 1022.6 1022.5 0.0
21/01:00am 12.2 10.5 9.8 85 1.2 SW 9 9 5 5 1022.7 1022.6 0.0
21/12:30am 12.0 10.2 9.6 85 1.2 SW 9 11 5 6 1022.8 1022.7 0.0
21/12:00am 11.6 10.1 9.2 85 1.2 SSW 7 9 4 5 1022.8 1022.7 0.0
 
Date/Time
EST
Temp
°C
App
Temp
°C
Dew
Point
°C
Rel
Hum
%
Delta-T
°C
Wind Press
QNH
hPa
Press
MSL
hPa
Rain since
9am
mm
Dir  Spd
km/h
Gust
km/h
Spd
kts
Gust
kts
20/11:30pm 12.2 10.8 9.6 84 1.3 WSW 7 9 4 5 1022.9 1022.8 0.0
20/11:00pm 12.4 11.0 9.6 83 1.4 W 7 9 4 5 1023.1 1023.0 0.0
20/10:30pm 11.9 10.5 9.5 85 1.2 W 7 11 4 6 1023.2 1023.1 0.0
20/10:00pm 12.5 11.0 9.3 81 1.6 SW 7 7 4 4 1023.3 1023.2 0.0
20/09:30pm 13.6 13.2 9.7 77 2.0 ESE 2 6 1 3 1023.3 1023.2 0.0
20/09:00pm 14.6 13.4 9.7 72 2.5 ESE 6 7 3 4 1023.2 1023.1 0.0
20/08:30pm 14.9 13.7 10.3 74 2.4 ESE 7 7 4 4 1023.0 1022.9 0.0
20/08:00pm 14.3 12.9 9.4 72 2.5 SE 7 7 4 4 1023.1 1023.0 0.0
20/07:30pm 14.1 12.8 10.0 76 2.1 SE 7 7 4 4 1023.1 1023.0 0.0
20/07:00pm 15.6 14.3 9.8 68 3.0 SE 7 7 4 4 1022.9 1022.8 0.0
20/06:30pm 16.3 14.8 9.3 63 3.6 SE 7 9 4 5 1022.8 1022.7 0.0
20/06:00pm 16.9 15.5 9.4 61 3.9 SE 7 9 4 5 1022.4 1022.3 0.0
20/05:30pm 17.1 16.1 10.3 64 3.6 SSE 6 7 3 4 1022.1 1022.0 0.0
20/05:00pm 18.0 17.7 11.4 65 3.6 SE 4 7 2 4 1022.1 1022.0 0.0
20/04:30pm 18.7 17.0 11.1 61 4.1 ESE 11 17 6 9 1022.0 1021.9 0.0
20/04:00pm 19.1 17.4 11.2 60 4.3 ESE 11 17 6 9 1022.1 1022.0 0.0
20/03:30pm 19.5 17.9 11.7 60 4.3 E 11 15 6 8 1022.2 1022.1 0.0
20/03:00pm 19.4 17.7 11.3 59 4.4 E 11 17 6 9 1022.2 1022.1 0.0
20/02:30pm 19.8 17.2 9.4 51 5.5 E 13 17 7 9 1022.1 1022.0 0.0
20/02:00pm 20.1 17.7 10.0 52 5.4 ENE 13 15 7 8 1022.2 1022.1 0.0
20/01:30pm 20.2 18.1 9.9 51 5.5 E 11 15 6 8 1022.3 1022.2 0.0
20/01:00pm 20.3 18.6 9.8 51 5.6 ESE 9 11 5 6 1022.5 1022.4 0.0
20/12:30pm 19.9 17.6 9.0 49 5.7 SE 11 15 6 8 1022.9 1022.8 0.0
20/12:00pm 20.2 17.6 7.7 44 6.4 S 11 17 6 9 1023.4 1023.3 0.0
20/11:30am 19.7 16.7 7.5 45 6.2 SW 13 17 7 9 1023.9 1023.8 0.0
20/11:00am 18.8 15.2 6.8 45 6.0 SW 15 19 8 10 1024.3 1024.2 0.0
20/10:30am 18.0 13.8 5.9 45 5.9 SW 17 24 9 13 1024.6 1024.5 0.0
20/10:00am 16.9 12.3 5.7 47 5.4 SSW 19 26 10 14 1024.8 1024.7 0.0
20/09:30am 15.3 10.0 5.1 50 4.8 SW 22 28 12 15 1024.8 1024.7 0.0
20/09:00am 14.1 8.8 5.1 54 4.2 SSW 22 28 12 15 1024.7 1024.6 0.0
20/08:30am 12.7 7.6 6.1 64 3.1 SSW 22 28 12 15 1024.5 1024.4 0.0
20/08:00am 11.2 7.0 5.8 69 2.5 SSW 17 24 9 13 1024.2 1024.1 0.0
20/07:30am 9.4 5.3 6.1 80 1.5 SSW 17 22 9 12 1023.8 1023.7 0.0
20/07:00am 8.0 3.7 5.1 82 1.3 SSW 17 20 9 11 1023.7 1023.6 0.0
20/06:30am 7.7 3.3 4.7 81 1.3 SSW 17 22 9 12 1023.4 1023.3 0.0
20/06:00am 7.6 3.2 4.9 83 1.2 SSW 17 24 9 13 1023.1 1023.0 0.0
20/05:30am 7.6 3.2 4.9 83 1.2 SSW 17 20 9 11 1022.8 1022.7 0.0
20/05:00am 8.8 4.5 5.2 78 1.6 SSW 17 20 9 11 1022.6 1022.5 0.0
20/04:30am 8.0 4.2 6.0 87 0.9 SSW 15 19 8 10 1022.2 1022.1 0.0
20/04:00am 8.9 5.2 6.5 85 1.1 SSW 15 20 8 11 1022.2 1022.1 0.0
20/03:30am 8.4 4.8 6.9 90 0.7 SSW 15 17 8 9 1022.1 1022.0 0.0
20/03:00am 8.3 5.1 7.0 91 0.6 SSW 13 17 7 9 1022.0 1021.9 0.0
20/02:30am 8.7 5.7 7.6 93 0.5 SSW 13 15 7 8 1022.0 1021.9 0.0
20/02:00am 8.9 6.4 8.1 95 0.4 SSW 11 11 6 6 1022.2 1022.1 0.0
20/01:30am 8.7 6.9 7.9 95 0.4 SSW 7 9 4 5 1022.3 1022.2 0.0
20/01:00am 8.8 8.3 7.7 93 0.5 CALM 0 0 0 0 1022.3 1022.2 0.0
20/12:30am 9.2 8.9 8.6 96 0.3 CALM 0 0 0 0 1022.2 1022.1 0.0
20/12:00am 9.1 8.6 7.8 92 0.6 CALM 0 0 0 0 1022.1 1022.0 0.0
 
Date/Time
EST
Temp
°C
App
Temp
°C
Dew
Point
°C
Rel
Hum
%
Delta-T
°C
Wind Press
QNH
hPa
Press
MSL
hPa
Rain since
9am
mm
Dir  Spd
km/h
Gust
km/h
Spd
kts
Gust
kts
19/11:30pm 9.6 8.9 8.6 93 0.5 WNW 2 6 1 3 1022.1 1022.0 0.0
19/11:00pm 10.3 10.1 8.9 91 0.7 CALM 0 0 0 0 1021.9 1021.8 0.0
19/10:30pm 11.1 10.9 8.9 86 1.1 CALM 0 0 0 0 1021.9 1021.8 0.0
19/10:00pm 11.1 10.1 8.9 86 1.1 NW 4 9 2 5 1021.8 1021.7 0.0
19/09:30pm 12.1 10.8 9.3 83 1.4 WNW 6 9 3 5 1021.7 1021.6 0.0
19/09:00pm 12.1 10.7 9.5 84 1.3 NW 7 9 4 5 1021.6 1021.5 0.0
19/08:30pm 12.9 11.1 9.5 80 1.7 NNW 9 19 5 10 1021.3 1021.2 0.0
19/08:00pm 13.4 11.8 10.3 81 1.6 NNW 9 19 5 10 1021.1 1021.0 0.0
19/07:30pm 13.0 12.1 11.5 91 0.8 NNW 7 15 4 8 1020.9 1020.8 0.0
19/07:00pm 13.5 11.9 11.4 87 1.1 N 11 15 6 8 1020.6 1020.5 0.0
19/06:30pm 12.4 10.7 9.8 84 1.3 N 9 15 5 8 1020.3 1020.2 0.0
19/06:00pm 14.4 13.8 11.6 83 1.5 NE 6 7 3 4 1020.1 1020.0 0.0
19/05:30pm 15.1 13.6 10.5 74 2.4 NE 9 11 5 6 1019.7 1019.6 0.0
19/05:00pm 16.8 15.0 9.5 62 3.8 NE 9 11 5 6 1019.4 1019.3 0.0
19/04:30pm 18.2 15.4 8.5 53 5.0 NE 13 17 7 9 1019.2 1019.1 0.0
19/04:00pm 19.1 15.7 7.5 47 5.9 NNE 15 19 8 10 1019.1 1019.0 0.0
19/03:30pm 19.6 15.5 7.7 46 6.1 NNE 19 20 10 11 1018.9 1018.8 0.0
19/03:00pm 19.7 15.9 7.5 45 6.2 NE 17 20 9 11 1019.0 1018.9 0.0
19/02:30pm 20.0 16.1 7.2 43 6.5 ENE 17 19 9 10 1019.0 1018.9 0.0
19/02:00pm 20.2 16.8 7.7 44 6.4 NE 15 17 8 9 1019.0 1018.9 0.0
19/01:30pm 20.4 17.5 8.0 44 6.4 NNE 13 17 7 9 1019.0 1018.9 0.0
19/01:00pm 20.6 17.6 7.8 43 6.6 NNE 13 19 7 10 1019.1 1019.0 0.0
19/12:30pm 20.9 19.2 7.7 42 6.8 W 6 13 3 7 1019.5 1019.4 0.0
19/12:00pm 19.8 17.1 5.8 40 6.9 SSW 9 15 5 8 1020.1 1020.0 0.0
19/11:30am 19.8 15.7 4.4 36 7.4 SW 15 22 8 12 1020.7 1020.6 0.0
19/11:00am 18.8 14.2 3.7 36 7.1 SW 17 22 9 12 1021.0 1020.9 0.0
19/10:30am 17.6 12.7 2.3 36 6.9 SSW 17 20 9 11 1021.2 1021.1 0.0
19/10:00am 17.2 11.9 3.0 38 6.5 SW 20 26 11 14 1021.4 1021.3 0.0
19/09:30am 15.8 11.0 2.6 41 5.9 SW 17 22 9 12 1021.5 1021.4 0.0
19/09:00am 14.6 9.9 3.0 45 5.2 SW 17 22 9 12 1021.4 1021.3 0.0
19/08:30am 12.7 8.1 3.5 53 4.1 SW 17 22 9 12 1021.1 1021.0 0.0
19/08:00am 10.9 6.4 4.1 63 3.0 SSW 17 20 9 11 1020.9 1020.8 0.0
19/07:30am 9.3 5.6 4.3 71 2.2 SW 13 17 7 9 1020.6 1020.5 0.0
19/07:00am 7.2 3.6 2.9 74 1.8 SW 11 13 6 7 1020.2 1020.1 0.0
19/06:30am 7.1 3.4 2.2 71 2.0 SSW 11 13 6 7 1019.8 1019.7 0.0
19/06:00am 7.0 4.4 3.4 78 1.5 SSW 6 13 3 7 1019.7 1019.6 0.0
19/05:30am 6.6 3.0 2.7 76 1.6 SW 11 13 6 7 1019.4 1019.3 0.0
19/05:00am 8.2 4.2 2.7 68 2.3 SW 13 15 7 8 1019.3 1019.2 0.0
19/04:30am 7.1 3.6 3.3 77 1.6 SW 11 15 6 8 1019.1 1019.0 0.0
19/04:00am 7.4 3.5 3.4 76 1.7 SSW 13 17 7 9 1019.2 1019.1 0.0
19/03:30am 7.8 3.9 3.6 75 1.8 SSW 13 17 7 9 1019.2 1019.1 0.0
19/03:00am 8.5 4.7 4.1 74 1.9 SSW 13 17 7 9 1019.1 1019.0 0.0
19/02:30am 7.8 4.0 4.1 77 1.6 SW 13 13 7 7 1019.1 1019.0 0.0
19/02:00am 8.2 5.6 4.3 76 1.7 W 7 9 4 5 1018.9 1018.8 0.0
19/01:30am 8.9 6.5 5.1 77 1.7 WSW 7 9 4 5 1018.7 1018.6 0.0
19/01:00am 9.1 5.8 4.6 73 2.0 SW 11 13 6 7 1019.0 1018.9 0.0
19/12:30am 10.1 6.7 4.2 67 2.6 SW 11 15 6 8 1019.1 1019.0 0.0
19/12:00am 9.6 6.1 5.4 75 1.9 SW 13 13 7 7 1019.1 1019.0 0.0
 
Date/Time
EST
Temp
°C
App
Temp
°C
Dew
Point
°C
Rel
Hum
%
Delta-T
°C
Wind Press
QNH
hPa
Press
MSL
hPa
Rain since
9am
mm
Dir  Spd
km/h
Gust
km/h
Spd
kts
Gust
kts
18/11:30pm 10.3 6.9 5.7 73 2.1 SW 13 15 7 8 1019.0 1018.9 0.0
18/11:00pm 10.6 7.7 6.3 75 2.0 SSW 11 13 6 7 1018.9 1018.8 0.0

Other formats

Comma delimited format used in spreadsheet applications
http://www.bom.gov.au/fwo/IDQ60801/IDQ60801.94578.axf

JavaScript Object Notation format (JSON) in row-major order
http://www.bom.gov.au/fwo/IDQ60801/IDQ60801.94578.json

Data quality

Most of these data are generated automatically and are frequently updated. Quality checks on data are not normally performed. It is possible for incorrect values to appear. Refer to information at About Latest Weather Observations and please check the disclaimer before using these data.